sensor_id;sensor_type;location;lat;lon;timestamp;P1;durP1;ratioP1;P2;durP2;ratioP2
64208;SDS011;50527;52.414;13.226;2024-02-28T00:00:27;12.77;;;3.33;;
64208;SDS011;50527;52.414;13.226;2024-02-28T00:02:53;11.20;;;3.28;;
64208;SDS011;50527;52.414;13.226;2024-02-28T00:05:18;8.18;;;3.13;;
64208;SDS011;50527;52.414;13.226;2024-02-28T00:07:44;7.93;;;2.53;;
64208;SDS011;50527;52.414;13.226;2024-02-28T00:10:10;10.57;;;2.70;;
64208;SDS011;50527;52.414;13.226;2024-02-28T00:12:36;10.02;;;3.30;;
64208;SDS011;50527;52.414;13.226;2024-02-28T00:15:02;8.57;;;2.40;;
64208;SDS011;50527;52.414;13.226;2024-02-28T00:17:30;9.77;;;3.35;;
64208;SDS011;50527;52.414;13.226;2024-02-28T00:19:55;11.63;;;3.08;;
64208;SDS011;50527;52.414;13.226;2024-02-28T00:22:21;11.60;;;3.15;;
64208;SDS011;50527;52.414;13.226;2024-02-28T00:24:46;9.70;;;3.20;;
64208;SDS011;50527;52.414;13.226;2024-02-28T00:27:12;11.18;;;3.15;;
64208;SDS011;50527;52.414;13.226;2024-02-28T00:29:38;8.70;;;3.17;;
64208;SDS011;50527;52.414;13.226;2024-02-28T00:32:03;12.98;;;3.75;;
64208;SDS011;50527;52.414;13.226;2024-02-28T00:34:29;14.18;;;3.20;;
64208;SDS011;50527;52.414;13.226;2024-02-28T00:36:54;11.30;;;3.33;;
64208;SDS011;50527;52.414;13.226;2024-02-28T00:39:20;10.95;;;3.42;;
64208;SDS011;50527;52.414;13.226;2024-02-28T00:41:45;11.77;;;3.85;;
64208;SDS011;50527;52.414;13.226;2024-02-28T00:44:11;10.38;;;3.22;;
64208;SDS011;50527;52.414;13.226;2024-02-28T00:46:36;13.43;;;3.03;;
64208;SDS011;50527;52.414;13.226;2024-02-28T00:49:01;10.20;;;3.22;;
64208;SDS011;50527;52.414;13.226;2024-02-28T00:51:27;10.18;;;3.13;;
64208;SDS011;50527;52.414;13.226;2024-02-28T00:53:52;14.20;;;3.35;;
64208;SDS011;50527;52.414;13.226;2024-02-28T00:56:18;11.95;;;3.42;;
64208;SDS011;50527;52.414;13.226;2024-02-28T00:58:44;17.92;;;3.85;;
64208;SDS011;50527;52.414;13.226;2024-02-28T01:01:09;13.05;;;3.20;;
64208;SDS011;50527;52.414;13.226;2024-02-28T01:03:35;11.63;;;3.42;;
64208;SDS011;50527;52.414;13.226;2024-02-28T01:06:00;8.30;;;2.80;;
64208;SDS011;50527;52.414;13.226;2024-02-28T01:08:26;12.18;;;3.38;;
64208;SDS011;50527;52.414;13.226;2024-02-28T01:10:51;14.07;;;3.83;;
64208;SDS011;50527;52.414;13.226;2024-02-28T01:13:17;11.93;;;3.47;;
64208;SDS011;50527;52.414;13.226;2024-02-28T01:15:42;12.30;;;3.65;;
64208;SDS011;50527;52.414;13.226;2024-02-28T01:18:08;14.68;;;3.55;;
64208;SDS011;50527;52.414;13.226;2024-02-28T01:20:35;9.63;;;2.75;;
64208;SDS011;50527;52.414;13.226;2024-02-28T01:23:00;14.32;;;3.10;;
64208;SDS011;50527;52.414;13.226;2024-02-28T01:25:26;12.18;;;3.88;;
64208;SDS011;50527;52.414;13.226;2024-02-28T01:27:51;11.38;;;3.63;;
64208;SDS011;50527;52.414;13.226;2024-02-28T01:30:17;13.27;;;3.65;;
64208;SDS011;50527;52.414;13.226;2024-02-28T01:32:43;12.15;;;3.60;;
64208;SDS011;50527;52.414;13.226;2024-02-28T01:35:09;11.82;;;3.20;;
64208;SDS011;50527;52.414;13.226;2024-02-28T01:37:34;10.18;;;3.33;;
64208;SDS011;50527;52.414;13.226;2024-02-28T01:39:59;11.10;;;3.30;;
64208;SDS011;50527;52.414;13.226;2024-02-28T01:42:25;11.18;;;3.00;;
64208;SDS011;50527;52.414;13.226;2024-02-28T01:44:50;8.38;;;2.90;;
64208;SDS011;50527;52.414;13.226;2024-02-28T01:47:16;8.63;;;2.65;;
64208;SDS011;50527;52.414;13.226;2024-02-28T01:49:42;10.23;;;3.08;;
64208;SDS011;50527;52.414;13.226;2024-02-28T01:52:09;13.55;;;2.85;;
64208;SDS011;50527;52.414;13.226;2024-02-28T01:54:35;11.65;;;3.30;;
64208;SDS011;50527;52.414;13.226;2024-02-28T01:57:01;9.10;;;2.97;;
64208;SDS011;50527;52.414;13.226;2024-02-28T01:59:28;11.52;;;3.35;;
64208;SDS011;50527;52.414;13.226;2024-02-28T02:01:54;13.07;;;3.10;;
64208;SDS011;50527;52.414;13.226;2024-02-28T02:04:20;9.88;;;2.78;;
64208;SDS011;50527;52.414;13.226;2024-02-28T02:06:46;9.32;;;3.00;;
64208;SDS011;50527;52.414;13.226;2024-02-28T02:09:14;6.93;;;2.28;;
64208;SDS011;50527;52.414;13.226;2024-02-28T02:11:40;10.68;;;3.22;;
64208;SDS011;50527;52.414;13.226;2024-02-28T02:14:06;9.93;;;3.00;;
64208;SDS011;50527;52.414;13.226;2024-02-28T02:16:31;10.38;;;2.60;;
64208;SDS011;50527;52.414;13.226;2024-02-28T02:18:57;11.70;;;3.10;;
64208;SDS011;50527;52.414;13.226;2024-02-28T02:21:23;12.45;;;3.15;;
64208;SDS011;50527;52.414;13.226;2024-02-28T02:23:51;12.00;;;2.90;;
64208;SDS011;50527;52.414;13.226;2024-02-28T02:26:17;12.00;;;2.80;;
64208;SDS011;50527;52.414;13.226;2024-02-28T02:28:42;12.05;;;3.03;;
64208;SDS011;50527;52.414;13.226;2024-02-28T02:31:08;13.13;;;3.17;;
64208;SDS011;50527;52.414;13.226;2024-02-28T02:33:33;12.80;;;3.50;;
64208;SDS011;50527;52.414;13.226;2024-02-28T02:35:59;8.88;;;2.97;;
64208;SDS011;50527;52.414;13.226;2024-02-28T02:38:24;9.60;;;2.80;;
64208;SDS011;50527;52.414;13.226;2024-02-28T02:40:50;9.95;;;3.08;;
64208;SDS011;50527;52.414;13.226;2024-02-28T02:43:16;10.10;;;2.83;;
64208;SDS011;50527;52.414;13.226;2024-02-28T02:45:42;8.48;;;2.50;;
64208;SDS011;50527;52.414;13.226;2024-02-28T02:48:08;8.52;;;3.20;;
64208;SDS011;50527;52.414;13.226;2024-02-28T02:50:34;9.57;;;2.67;;
64208;SDS011;50527;52.414;13.226;2024-02-28T02:52:59;8.98;;;2.50;;
64208;SDS011;50527;52.414;13.226;2024-02-28T02:55:25;8.90;;;2.63;;
64208;SDS011;50527;52.414;13.226;2024-02-28T02:57:50;10.70;;;2.42;;
64208;SDS011;50527;52.414;13.226;2024-02-28T03:00:16;10.95;;;2.42;;
64208;SDS011;50527;52.414;13.226;2024-02-28T03:02:41;9.80;;;2.45;;
64208;SDS011;50527;52.414;13.226;2024-02-28T03:05:07;6.43;;;2.22;;
64208;SDS011;50527;52.414;13.226;2024-02-28T03:07:32;8.10;;;2.03;;
64208;SDS011;50527;52.414;13.226;2024-02-28T03:09:58;10.95;;;2.35;;
64208;SDS011;50527;52.414;13.226;2024-02-28T03:12:24;6.57;;;2.10;;
64208;SDS011;50527;52.414;13.226;2024-02-28T03:14:49;8.35;;;2.28;;
64208;SDS011;50527;52.414;13.226;2024-02-28T03:17:15;15.00;;;3.08;;
64208;SDS011;50527;52.414;13.226;2024-02-28T03:19:44;8.55;;;2.72;;
64208;SDS011;50527;52.414;13.226;2024-02-28T03:22:09;8.40;;;2.40;;
64208;SDS011;50527;52.414;13.226;2024-02-28T03:24:34;7.00;;;2.42;;
64208;SDS011;50527;52.414;13.226;2024-02-28T03:27:00;8.18;;;2.75;;
64208;SDS011;50527;52.414;13.226;2024-02-28T03:29:29;6.63;;;2.28;;
64208;SDS011;50527;52.414;13.226;2024-02-28T03:31:55;9.02;;;2.75;;
64208;SDS011;50527;52.414;13.226;2024-02-28T03:34:21;7.25;;;2.30;;
64208;SDS011;50527;52.414;13.226;2024-02-28T03:36:46;12.23;;;2.90;;
64208;SDS011;50527;52.414;13.226;2024-02-28T03:39:12;7.55;;;2.72;;
64208;SDS011;50527;52.414;13.226;2024-02-28T03:41:38;9.07;;;2.15;;
64208;SDS011;50527;52.414;13.226;2024-02-28T03:44:03;7.03;;;2.22;;
64208;SDS011;50527;52.414;13.226;2024-02-28T03:46:29;6.93;;;2.53;;
64208;SDS011;50527;52.414;13.226;2024-02-28T03:48:55;8.15;;;2.55;;
64208;SDS011;50527;52.414;13.226;2024-02-28T03:51:20;6.93;;;2.15;;
64208;SDS011;50527;52.414;13.226;2024-02-28T03:53:46;6.78;;;1.92;;
64208;SDS011;50527;52.414;13.226;2024-02-28T03:56:12;8.32;;;2.10;;
64208;SDS011;50527;52.414;13.226;2024-02-28T03:58:37;5.15;;;1.73;;
64208;SDS011;50527;52.414;13.226;2024-02-28T04:01:04;9.50;;;2.65;;
64208;SDS011;50527;52.414;13.226;2024-02-28T04:03:29;9.77;;;2.40;;
64208;SDS011;50527;52.414;13.226;2024-02-28T04:05:54;5.95;;;1.63;;
64208;SDS011;50527;52.414;13.226;2024-02-28T04:08:20;7.03;;;1.98;;
64208;SDS011;50527;52.414;13.226;2024-02-28T04:10:45;6.90;;;2.13;;
64208;SDS011;50527;52.414;13.226;2024-02-28T04:13:11;7.25;;;2.00;;
64208;SDS011;50527;52.414;13.226;2024-02-28T04:15:36;8.15;;;1.80;;
64208;SDS011;50527;52.414;13.226;2024-02-28T04:18:03;6.75;;;2.13;;
64208;SDS011;50527;52.414;13.226;2024-02-28T04:20:29;8.75;;;2.28;;
64208;SDS011;50527;52.414;13.226;2024-02-28T04:22:54;5.65;;;2.00;;
64208;SDS011;50527;52.414;13.226;2024-02-28T04:25:19;7.88;;;1.85;;
64208;SDS011;50527;52.414;13.226;2024-02-28T04:27:45;7.63;;;2.03;;
64208;SDS011;50527;52.414;13.226;2024-02-28T04:30:12;5.45;;;1.90;;
64208;SDS011;50527;52.414;13.226;2024-02-28T04:32:37;8.05;;;1.95;;
64208;SDS011;50527;52.414;13.226;2024-02-28T04:35:03;7.15;;;2.08;;
64208;SDS011;50527;52.414;13.226;2024-02-28T04:37:29;6.70;;;2.03;;
64208;SDS011;50527;52.414;13.226;2024-02-28T04:39:54;7.97;;;2.00;;
64208;SDS011;50527;52.414;13.226;2024-02-28T04:42:20;7.35;;;1.83;;
64208;SDS011;50527;52.414;13.226;2024-02-28T04:44:45;5.38;;;1.77;;
64208;SDS011;50527;52.414;13.226;2024-02-28T04:47:10;5.10;;;1.58;;
64208;SDS011;50527;52.414;13.226;2024-02-28T04:49:36;5.60;;;1.65;;
64208;SDS011;50527;52.414;13.226;2024-02-28T04:52:03;5.47;;;1.80;;
64208;SDS011;50527;52.414;13.226;2024-02-28T04:54:30;5.65;;;1.98;;
64208;SDS011;50527;52.414;13.226;2024-02-28T04:56:55;6.82;;;1.60;;
64208;SDS011;50527;52.414;13.226;2024-02-28T04:59:21;4.10;;;1.58;;
64208;SDS011;50527;52.414;13.226;2024-02-28T05:01:46;5.93;;;1.75;;
64208;SDS011;50527;52.414;13.226;2024-02-28T05:04:13;6.55;;;1.70;;
64208;SDS011;50527;52.414;13.226;2024-02-28T05:06:38;3.00;;;1.30;;
64208;SDS011;50527;52.414;13.226;2024-02-28T05:09:04;3.03;;;1.33;;
64208;SDS011;50527;52.414;13.226;2024-02-28T05:11:29;3.38;;;1.50;;
64208;SDS011;50527;52.414;13.226;2024-02-28T05:13:55;3.58;;;1.13;;
64208;SDS011;50527;52.414;13.226;2024-02-28T05:16:20;3.38;;;1.60;;
64208;SDS011;50527;52.414;13.226;2024-02-28T05:18:46;3.05;;;1.45;;
64208;SDS011;50527;52.414;13.226;2024-02-28T05:21:12;7.32;;;1.52;;
64208;SDS011;50527;52.414;13.226;2024-02-28T05:23:38;7.25;;;1.65;;
64208;SDS011;50527;52.414;13.226;2024-02-28T05:26:04;3.13;;;1.42;;
64208;SDS011;50527;52.414;13.226;2024-02-28T05:28:31;4.68;;;1.50;;
64208;SDS011;50527;52.414;13.226;2024-02-28T05:31:03;6.22;;;1.67;;
64208;SDS011;50527;52.414;13.226;2024-02-28T05:33:45;4.38;;;1.60;;
64208;SDS011;50527;52.414;13.226;2024-02-28T05:36:10;3.03;;;1.20;;
64208;SDS011;50527;52.414;13.226;2024-02-28T05:38:36;5.75;;;1.50;;
64208;SDS011;50527;52.414;13.226;2024-02-28T05:41:02;3.80;;;1.25;;
64208;SDS011;50527;52.414;13.226;2024-02-28T05:43:27;5.97;;;1.48;;
64208;SDS011;50527;52.414;13.226;2024-02-28T05:45:53;3.88;;;1.48;;
64208;SDS011;50527;52.414;13.226;2024-02-28T05:48:19;5.15;;;1.98;;
64208;SDS011;50527;52.414;13.226;2024-02-28T05:50:45;4.65;;;1.50;;
64208;SDS011;50527;52.414;13.226;2024-02-28T05:53:10;4.55;;;1.48;;
64208;SDS011;50527;52.414;13.226;2024-02-28T05:55:36;3.65;;;1.40;;
64208;SDS011;50527;52.414;13.226;2024-02-28T05:58:01;4.00;;;1.58;;
64208;SDS011;50527;52.414;13.226;2024-02-28T06:00:27;4.43;;;1.30;;
64208;SDS011;50527;52.414;13.226;2024-02-28T06:02:53;7.20;;;1.65;;
64208;SDS011;50527;52.414;13.226;2024-02-28T06:05:18;4.15;;;1.40;;
64208;SDS011;50527;52.414;13.226;2024-02-28T06:07:44;3.55;;;1.58;;
64208;SDS011;50527;52.414;13.226;2024-02-28T06:10:09;3.47;;;1.35;;
64208;SDS011;50527;52.414;13.226;2024-02-28T06:12:35;6.03;;;1.40;;
64208;SDS011;50527;52.414;13.226;2024-02-28T06:15:01;7.18;;;1.48;;
64208;SDS011;50527;52.414;13.226;2024-02-28T06:17:26;4.47;;;1.40;;
64208;SDS011;50527;52.414;13.226;2024-02-28T06:19:52;5.45;;;1.90;;
64208;SDS011;50527;52.414;13.226;2024-02-28T06:22:18;6.15;;;1.50;;
64208;SDS011;50527;52.414;13.226;2024-02-28T06:24:44;4.93;;;1.65;;
64208;SDS011;50527;52.414;13.226;2024-02-28T06:27:10;4.30;;;1.35;;
64208;SDS011;50527;52.414;13.226;2024-02-28T06:29:38;2.95;;;1.20;;
64208;SDS011;50527;52.414;13.226;2024-02-28T06:32:04;6.10;;;1.58;;
64208;SDS011;50527;52.414;13.226;2024-02-28T06:34:29;4.72;;;1.70;;
64208;SDS011;50527;52.414;13.226;2024-02-28T06:36:55;3.92;;;1.42;;
64208;SDS011;50527;52.414;13.226;2024-02-28T06:39:21;6.13;;;1.88;;
64208;SDS011;50527;52.414;13.226;2024-02-28T06:41:47;5.88;;;1.73;;
64208;SDS011;50527;52.414;13.226;2024-02-28T06:44:17;4.47;;;1.35;;
64208;SDS011;50527;52.414;13.226;2024-02-28T06:46:43;3.13;;;1.20;;
64208;SDS011;50527;52.414;13.226;2024-02-28T06:49:08;4.68;;;1.33;;
64208;SDS011;50527;52.414;13.226;2024-02-28T06:51:34;4.35;;;1.38;;
64208;SDS011;50527;52.414;13.226;2024-02-28T06:53:59;2.75;;;1.17;;
64208;SDS011;50527;52.414;13.226;2024-02-28T06:56:25;3.45;;;0.90;;
64208;SDS011;50527;52.414;13.226;2024-02-28T06:58:50;4.47;;;1.25;;
64208;SDS011;50527;52.414;13.226;2024-02-28T07:01:17;2.75;;;1.23;;
64208;SDS011;50527;52.414;13.226;2024-02-28T07:03:42;3.90;;;1.38;;
64208;SDS011;50527;52.414;13.226;2024-02-28T07:06:08;4.10;;;1.50;;
64208;SDS011;50527;52.414;13.226;2024-02-28T07:08:33;4.65;;;1.48;;
64208;SDS011;50527;52.414;13.226;2024-02-28T07:10:59;3.13;;;1.17;;
64208;SDS011;50527;52.414;13.226;2024-02-28T07:13:24;4.43;;;1.30;;
64208;SDS011;50527;52.414;13.226;2024-02-28T07:15:50;5.05;;;1.40;;
64208;SDS011;50527;52.414;13.226;2024-02-28T07:18:15;3.90;;;1.48;;
64208;SDS011;50527;52.414;13.226;2024-02-28T07:20:41;7.55;;;1.85;;
64208;SDS011;50527;52.414;13.226;2024-02-28T07:23:06;3.35;;;1.33;;
64208;SDS011;50527;52.414;13.226;2024-02-28T07:25:32;4.95;;;1.88;;
64208;SDS011;50527;52.414;13.226;2024-02-28T07:27:58;5.03;;;1.80;;
64208;SDS011;50527;52.414;13.226;2024-02-28T07:30:27;5.85;;;2.05;;
64208;SDS011;50527;52.414;13.226;2024-02-28T07:32:53;10.60;;;2.17;;
64208;SDS011;50527;52.414;13.226;2024-02-28T07:35:19;5.38;;;1.70;;
64208;SDS011;50527;52.414;13.226;2024-02-28T07:37:45;5.32;;;1.85;;
64208;SDS011;50527;52.414;13.226;2024-02-28T07:40:11;6.82;;;2.15;;
64208;SDS011;50527;52.414;13.226;2024-02-28T07:42:37;4.45;;;1.50;;
64208;SDS011;50527;52.414;13.226;2024-02-28T07:45:03;4.68;;;1.85;;
64208;SDS011;50527;52.414;13.226;2024-02-28T07:47:29;4.75;;;1.77;;
64208;SDS011;50527;52.414;13.226;2024-02-28T07:49:54;5.50;;;2.08;;
64208;SDS011;50527;52.414;13.226;2024-02-28T07:52:20;4.35;;;1.77;;
64208;SDS011;50527;52.414;13.226;2024-02-28T07:54:45;6.03;;;1.50;;
64208;SDS011;50527;52.414;13.226;2024-02-28T07:57:11;5.28;;;1.63;;
64208;SDS011;50527;52.414;13.226;2024-02-28T07:59:41;4.45;;;1.85;;
64208;SDS011;50527;52.414;13.226;2024-02-28T08:02:07;5.95;;;2.00;;
64208;SDS011;50527;52.414;13.226;2024-02-28T08:04:32;6.05;;;1.80;;
64208;SDS011;50527;52.414;13.226;2024-02-28T08:06:59;3.58;;;1.50;;
64208;SDS011;50527;52.414;13.226;2024-02-28T08:09:24;5.20;;;1.45;;
64208;SDS011;50527;52.414;13.226;2024-02-28T08:11:50;5.78;;;1.55;;
64208;SDS011;50527;52.414;13.226;2024-02-28T08:14:15;4.72;;;1.48;;
64208;SDS011;50527;52.414;13.226;2024-02-28T08:16:41;8.35;;;2.10;;
64208;SDS011;50527;52.414;13.226;2024-02-28T08:19:06;6.85;;;1.40;;
64208;SDS011;50527;52.414;13.226;2024-02-28T08:21:32;5.50;;;1.80;;
64208;SDS011;50527;52.414;13.226;2024-02-28T08:23:57;8.88;;;2.25;;
64208;SDS011;50527;52.414;13.226;2024-02-28T08:26:23;5.13;;;1.77;;
64208;SDS011;50527;52.414;13.226;2024-02-28T08:28:49;6.30;;;1.70;;
64208;SDS011;50527;52.414;13.226;2024-02-28T08:31:15;9.82;;;2.17;;
64208;SDS011;50527;52.414;13.226;2024-02-28T08:33:41;6.53;;;1.95;;
64208;SDS011;50527;52.414;13.226;2024-02-28T08:36:06;3.60;;;1.70;;
64208;SDS011;50527;52.414;13.226;2024-02-28T08:38:32;6.60;;;2.00;;
64208;SDS011;50527;52.414;13.226;2024-02-28T08:40:58;8.18;;;2.28;;
64208;SDS011;50527;52.414;13.226;2024-02-28T08:43:23;6.30;;;2.20;;
64208;SDS011;50527;52.414;13.226;2024-02-28T08:45:49;5.22;;;1.88;;
64208;SDS011;50527;52.414;13.226;2024-02-28T08:48:16;6.68;;;2.50;;
64208;SDS011;50527;52.414;13.226;2024-02-28T08:50:42;8.77;;;2.17;;
64208;SDS011;50527;52.414;13.226;2024-02-28T08:53:07;9.55;;;2.25;;
64208;SDS011;50527;52.414;13.226;2024-02-28T08:55:33;9.88;;;2.10;;
64208;SDS011;50527;52.414;13.226;2024-02-28T08:57:58;8.52;;;2.67;;
64208;SDS011;50527;52.414;13.226;2024-02-28T09:00:24;7.85;;;2.47;;
64208;SDS011;50527;52.414;13.226;2024-02-28T09:02:50;7.43;;;2.15;;
64208;SDS011;50527;52.414;13.226;2024-02-28T09:05:15;7.00;;;2.10;;
64208;SDS011;50527;52.414;13.226;2024-02-28T09:07:41;10.15;;;2.58;;
64208;SDS011;50527;52.414;13.226;2024-02-28T09:10:07;7.82;;;2.47;;
64208;SDS011;50527;52.414;13.226;2024-02-28T09:12:33;7.25;;;3.08;;
64208;SDS011;50527;52.414;13.226;2024-02-28T09:14:58;7.88;;;2.60;;
64208;SDS011;50527;52.414;13.226;2024-02-28T09:17:24;10.45;;;2.50;;
64208;SDS011;50527;52.414;13.226;2024-02-28T09:19:50;8.57;;;2.95;;
64208;SDS011;50527;52.414;13.226;2024-02-28T09:22:16;9.10;;;2.17;;
64208;SDS011;50527;52.414;13.226;2024-02-28T09:24:42;7.45;;;2.60;;
64208;SDS011;50527;52.414;13.226;2024-02-28T09:27:07;8.73;;;2.58;;
64208;SDS011;50527;52.414;13.226;2024-02-28T09:29:33;8.80;;;2.97;;
64208;SDS011;50527;52.414;13.226;2024-02-28T09:31:58;8.68;;;3.08;;
64208;SDS011;50527;52.414;13.226;2024-02-28T09:34:24;12.98;;;3.10;;
64208;SDS011;50527;52.414;13.226;2024-02-28T09:36:49;7.55;;;3.00;;
64208;SDS011;50527;52.414;13.226;2024-02-28T09:39:15;6.35;;;2.60;;
64208;SDS011;50527;52.414;13.226;2024-02-28T09:41:40;6.72;;;2.50;;
64208;SDS011;50527;52.414;13.226;2024-02-28T09:44:06;6.72;;;2.80;;
64208;SDS011;50527;52.414;13.226;2024-02-28T09:46:33;11.07;;;3.03;;
64208;SDS011;50527;52.414;13.226;2024-02-28T09:49:05;8.93;;;2.60;;
64208;SDS011;50527;52.414;13.226;2024-02-28T09:51:33;9.85;;;3.33;;
64208;SDS011;50527;52.414;13.226;2024-02-28T09:54:00;9.32;;;3.00;;
64208;SDS011;50527;52.414;13.226;2024-02-28T09:56:27;10.00;;;2.88;;
64208;SDS011;50527;52.414;13.226;2024-02-28T09:58:53;10.32;;;3.42;;
64208;SDS011;50527;52.414;13.226;2024-02-28T10:01:19;8.07;;;3.22;;
64208;SDS011;50527;52.414;13.226;2024-02-28T10:03:51;8.63;;;2.47;;
64208;SDS011;50527;52.414;13.226;2024-02-28T10:06:18;9.40;;;2.90;;
64208;SDS011;50527;52.414;13.226;2024-02-28T10:08:44;8.98;;;2.60;;
64208;SDS011;50527;52.414;13.226;2024-02-28T10:11:16;6.13;;;2.30;;
64208;SDS011;50527;52.414;13.226;2024-02-28T10:13:46;6.03;;;2.25;;
64208;SDS011;50527;52.414;13.226;2024-02-28T10:16:12;9.90;;;2.75;;
64208;SDS011;50527;52.414;13.226;2024-02-28T10:18:39;7.40;;;2.70;;
64208;SDS011;50527;52.414;13.226;2024-02-28T10:21:05;8.90;;;2.70;;
64208;SDS011;50527;52.414;13.226;2024-02-28T10:23:30;11.65;;;2.80;;
64208;SDS011;50527;52.414;13.226;2024-02-28T10:25:56;8.77;;;2.58;;
64208;SDS011;50527;52.414;13.226;2024-02-28T10:28:22;6.30;;;2.55;;
64208;SDS011;50527;52.414;13.226;2024-02-28T10:30:47;7.78;;;2.67;;
64208;SDS011;50527;52.414;13.226;2024-02-28T10:33:13;9.02;;;3.15;;
64208;SDS011;50527;52.414;13.226;2024-02-28T10:35:40;10.95;;;2.60;;
64208;SDS011;50527;52.414;13.226;2024-02-28T10:38:07;8.70;;;2.70;;
64208;SDS011;50527;52.414;13.226;2024-02-28T10:40:36;8.13;;;2.63;;
64208;SDS011;50527;52.414;13.226;2024-02-28T10:43:02;9.07;;;3.10;;
64208;SDS011;50527;52.414;13.226;2024-02-28T10:45:30;7.78;;;2.47;;
64208;SDS011;50527;52.414;13.226;2024-02-28T10:47:56;10.10;;;2.70;;
64208;SDS011;50527;52.414;13.226;2024-02-28T10:50:22;6.68;;;2.70;;
64208;SDS011;50527;52.414;13.226;2024-02-28T10:52:48;8.48;;;3.05;;
64208;SDS011;50527;52.414;13.226;2024-02-28T10:55:18;9.25;;;2.80;;
64208;SDS011;50527;52.414;13.226;2024-02-28T10:57:49;5.80;;;2.50;;
64208;SDS011;50527;52.414;13.226;2024-02-28T11:00:32;8.13;;;2.78;;
64208;SDS011;50527;52.414;13.226;2024-02-28T11:02:59;9.50;;;2.83;;
64208;SDS011;50527;52.414;13.226;2024-02-28T11:05:34;10.18;;;2.67;;
64208;SDS011;50527;52.414;13.226;2024-02-28T11:08:01;7.55;;;2.70;;
64208;SDS011;50527;52.414;13.226;2024-02-28T11:10:30;5.28;;;2.15;;
64208;SDS011;50527;52.414;13.226;2024-02-28T11:12:59;8.18;;;2.35;;
64208;SDS011;50527;52.414;13.226;2024-02-28T11:15:25;7.38;;;2.58;;
64208;SDS011;50527;52.414;13.226;2024-02-28T11:17:52;7.40;;;2.20;;
64208;SDS011;50527;52.414;13.226;2024-02-28T11:20:18;6.53;;;2.50;;
64208;SDS011;50527;52.414;13.226;2024-02-28T11:22:43;6.55;;;2.13;;
64208;SDS011;50527;52.414;13.226;2024-02-28T11:25:09;9.57;;;2.67;;
64208;SDS011;50527;52.414;13.226;2024-02-28T11:27:44;5.47;;;2.20;;
64208;SDS011;50527;52.414;13.226;2024-02-28T11:30:11;8.23;;;2.50;;
64208;SDS011;50527;52.414;13.226;2024-02-28T11:32:38;5.07;;;2.47;;
64208;SDS011;50527;52.414;13.226;2024-02-28T11:35:03;7.25;;;2.58;;
64208;SDS011;50527;52.414;13.226;2024-02-28T11:37:29;9.32;;;2.63;;
64208;SDS011;50527;52.414;13.226;2024-02-28T11:39:56;9.65;;;2.42;;
64208;SDS011;50527;52.414;13.226;2024-02-28T11:42:21;5.97;;;2.38;;
64208;SDS011;50527;52.414;13.226;2024-02-28T11:44:56;6.45;;;2.00;;
64208;SDS011;50527;52.414;13.226;2024-02-28T11:47:22;7.55;;;2.60;;
64208;SDS011;50527;52.414;13.226;2024-02-28T11:49:48;6.13;;;2.05;;
64208;SDS011;50527;52.414;13.226;2024-02-28T11:52:14;6.10;;;2.08;;
64208;SDS011;50527;52.414;13.226;2024-02-28T11:54:40;7.15;;;1.90;;
64208;SDS011;50527;52.414;13.226;2024-02-28T11:57:07;5.65;;;1.73;;
64208;SDS011;50527;52.414;13.226;2024-02-28T11:59:35;7.13;;;1.83;;
64208;SDS011;50527;52.414;13.226;2024-02-28T12:02:10;5.72;;;1.90;;
64208;SDS011;50527;52.414;13.226;2024-02-28T12:04:41;5.90;;;2.22;;
64208;SDS011;50527;52.414;13.226;2024-02-28T12:07:11;6.10;;;2.35;;
64208;SDS011;50527;52.414;13.226;2024-02-28T12:09:37;5.40;;;1.92;;
64208;SDS011;50527;52.414;13.226;2024-02-28T12:12:03;5.63;;;2.40;;
64208;SDS011;50527;52.414;13.226;2024-02-28T12:14:36;6.18;;;1.95;;
64208;SDS011;50527;52.414;13.226;2024-02-28T12:17:03;5.88;;;2.25;;
64208;SDS011;50527;52.414;13.226;2024-02-28T12:19:28;7.32;;;2.17;;
64208;SDS011;50527;52.414;13.226;2024-02-28T12:21:54;5.75;;;1.85;;
64208;SDS011;50527;52.414;13.226;2024-02-28T12:24:20;9.15;;;2.08;;
64208;SDS011;50527;52.414;13.226;2024-02-28T12:26:46;5.95;;;2.10;;
64208;SDS011;50527;52.414;13.226;2024-02-28T12:29:12;7.22;;;2.10;;
64208;SDS011;50527;52.414;13.226;2024-02-28T12:31:37;5.75;;;2.33;;
64208;SDS011;50527;52.414;13.226;2024-02-28T12:34:03;5.85;;;2.15;;
64208;SDS011;50527;52.414;13.226;2024-02-28T12:36:29;7.28;;;2.38;;
64208;SDS011;50527;52.414;13.226;2024-02-28T12:38:56;7.30;;;2.20;;
64208;SDS011;50527;52.414;13.226;2024-02-28T12:41:22;7.32;;;2.38;;
64208;SDS011;50527;52.414;13.226;2024-02-28T12:43:47;8.02;;;1.98;;
64208;SDS011;50527;52.414;13.226;2024-02-28T12:46:12;6.53;;;2.20;;
64208;SDS011;50527;52.414;13.226;2024-02-28T12:48:38;7.40;;;2.20;;
64208;SDS011;50527;52.414;13.226;2024-02-28T12:51:05;7.15;;;2.33;;
64208;SDS011;50527;52.414;13.226;2024-02-28T12:53:31;8.18;;;2.00;;
64208;SDS011;50527;52.414;13.226;2024-02-28T12:55:56;7.30;;;2.05;;
64208;SDS011;50527;52.414;13.226;2024-02-28T12:58:22;5.50;;;1.85;;
64208;SDS011;50527;52.414;13.226;2024-02-28T13:00:51;4.68;;;2.05;;
64208;SDS011;50527;52.414;13.226;2024-02-28T13:03:17;6.03;;;2.08;;
64208;SDS011;50527;52.414;13.226;2024-02-28T13:05:42;9.45;;;2.00;;
64208;SDS011;50527;52.414;13.226;2024-02-28T13:08:08;6.97;;;2.15;;
64208;SDS011;50527;52.414;13.226;2024-02-28T13:10:34;5.45;;;1.63;;
64208;SDS011;50527;52.414;13.226;2024-02-28T13:13:01;7.25;;;2.10;;
64208;SDS011;50527;52.414;13.226;2024-02-28T13:15:28;8.25;;;2.25;;
64208;SDS011;50527;52.414;13.226;2024-02-28T13:17:53;7.05;;;2.00;;
64208;SDS011;50527;52.414;13.226;2024-02-28T13:20:19;6.63;;;2.10;;
64208;SDS011;50527;52.414;13.226;2024-02-28T13:22:44;5.72;;;1.90;;
64208;SDS011;50527;52.414;13.226;2024-02-28T13:25:11;7.68;;;2.20;;
64208;SDS011;50527;52.414;13.226;2024-02-28T13:27:36;8.07;;;1.90;;
64208;SDS011;50527;52.414;13.226;2024-02-28T13:30:03;7.30;;;1.67;;
64208;SDS011;50527;52.414;13.226;2024-02-28T13:32:28;6.40;;;1.80;;
64208;SDS011;50527;52.414;13.226;2024-02-28T13:34:54;4.63;;;1.48;;
64208;SDS011;50527;52.414;13.226;2024-02-28T13:37:20;4.60;;;1.90;;
64208;SDS011;50527;52.414;13.226;2024-02-28T13:39:45;7.90;;;2.35;;
64208;SDS011;50527;52.414;13.226;2024-02-28T13:42:11;5.38;;;1.85;;
64208;SDS011;50527;52.414;13.226;2024-02-28T13:44:37;5.40;;;1.40;;
64208;SDS011;50527;52.414;13.226;2024-02-28T13:47:03;3.70;;;1.60;;
64208;SDS011;50527;52.414;13.226;2024-02-28T13:49:29;5.60;;;1.80;;
64208;SDS011;50527;52.414;13.226;2024-02-28T13:51:54;5.53;;;1.80;;
64208;SDS011;50527;52.414;13.226;2024-02-28T13:54:20;5.28;;;1.77;;
64208;SDS011;50527;52.414;13.226;2024-02-28T13:56:45;8.40;;;2.22;;
64208;SDS011;50527;52.414;13.226;2024-02-28T13:59:11;6.45;;;2.00;;
64208;SDS011;50527;52.414;13.226;2024-02-28T14:01:37;7.25;;;2.35;;
64208;SDS011;50527;52.414;13.226;2024-02-28T14:04:03;3.80;;;1.42;;
64208;SDS011;50527;52.414;13.226;2024-02-28T14:06:29;7.57;;;1.92;;
64208;SDS011;50527;52.414;13.226;2024-02-28T14:08:55;5.82;;;2.33;;
64208;SDS011;50527;52.414;13.226;2024-02-28T14:11:21;6.07;;;2.00;;
64208;SDS011;50527;52.414;13.226;2024-02-28T14:13:47;4.95;;;1.67;;
64208;SDS011;50527;52.414;13.226;2024-02-28T14:16:12;7.40;;;1.85;;
64208;SDS011;50527;52.414;13.226;2024-02-28T14:18:38;5.47;;;1.63;;
64208;SDS011;50527;52.414;13.226;2024-02-28T14:21:04;5.63;;;1.92;;
64208;SDS011;50527;52.414;13.226;2024-02-28T14:23:30;8.75;;;2.10;;